createdAt,value
2022-12-15T00:02:12.063Z,8.93
2022-12-15T00:07:32.931Z,7.74
2022-12-15T00:12:53.854Z,8.17
2022-12-15T00:18:14.858Z,7.12
2022-12-15T00:23:41.544Z,6.93
2022-12-15T00:29:08.614Z,6.85
2022-12-15T00:34:36.783Z,7.64
2022-12-15T00:40:01.701Z,8.02
2022-12-15T00:45:29.644Z,7.99
2022-12-15T00:50:56.371Z,7.79
2022-12-15T00:56:23.110Z,7.91
2022-12-15T01:01:50.166Z,6.89
2022-12-15T01:07:15.837Z,7.92
2022-12-15T01:12:36.649Z,7.89
2022-12-15T01:18:02.373Z,6.94
2022-12-15T01:23:23.282Z,6.79
2022-12-15T01:28:48.061Z,6.51
2022-12-15T01:34:15.390Z,6.65
2022-12-15T01:39:41.051Z,6.65
2022-12-15T01:45:01.971Z,7.04
2022-12-15T01:50:55.697Z,6.44
2022-12-15T01:56:33.971Z,7.08
2022-12-15T02:01:53.994Z,7.20
2022-12-15T02:07:20.583Z,8.30
2022-12-15T02:12:48.265Z,7.75
2022-12-15T02:18:14.906Z,8.53
2022-12-15T02:23:39.727Z,7.14
2022-12-15T02:29:24.471Z,8.37
2022-12-15T02:34:58.223Z,7.26
2022-12-15T02:40:19.806Z,7.83
2022-12-15T02:45:47.521Z,7.04
2022-12-15T02:51:11.705Z,6.95
2022-12-15T02:56:36.360Z,7.51
2022-12-15T03:02:02.913Z,7.45
2022-12-15T03:07:23.474Z,7.30
2022-12-15T03:12:44.502Z,7.49
2022-12-15T03:18:09.806Z,6.89
2022-12-15T03:23:36.026Z,7.59
2022-12-15T03:29:01.428Z,7.10
2022-12-15T03:34:22.236Z,7.55
2022-12-15T03:39:43.356Z,6.55
2022-12-15T03:45:10.183Z,6.13
2022-12-15T03:50:36.892Z,6.13
2022-12-15T03:56:02.030Z,6.34
2022-12-15T04:01:27.135Z,6.84
2022-12-15T04:06:52.170Z,6.49
2022-12-15T04:12:18.914Z,6.10
2022-12-15T04:17:45.925Z,6.00
2022-12-15T04:23:06.531Z,6.07
2022-12-15T04:28:27.145Z,6.21
2022-12-15T04:33:53.342Z,6.89
2022-12-15T04:39:20.458Z,6.62
2022-12-15T04:44:41.403Z,6.71
2022-12-15T04:50:08.844Z,6.85
2022-12-15T04:55:33.627Z,6.13
2022-12-15T05:00:59.225Z,6.11
2022-12-15T05:06:24.636Z,5.61
2022-12-15T05:11:52.274Z,5.91
2022-12-15T05:17:18.919Z,6.10
2022-12-15T05:22:46.135Z,5.72
2022-12-15T05:28:10.326Z,6.54
2022-12-15T05:33:31.154Z,7.31
2022-12-15T05:38:57.794Z,6.59
2022-12-15T05:44:22.472Z,6.48
2022-12-15T05:49:48.708Z,6.82
2022-12-15T05:55:13.958Z,5.89
2022-12-15T06:00:39.370Z,6.36
2022-12-15T06:06:04.055Z,6.23
2022-12-15T06:11:30.082Z,6.83
2022-12-15T06:16:55.355Z,7.12
2022-12-15T06:22:20.763Z,7.00
2022-12-15T06:27:47.327Z,6.71
2022-12-15T06:33:10.111Z,6.24
2022-12-15T06:38:30.911Z,7.06
2022-12-15T06:43:57.012Z,7.28
2022-12-15T06:49:18.168Z,7.45
2022-12-15T06:54:38.733Z,7.00
2022-12-15T07:00:03.750Z,7.29
2022-12-15T07:05:28.046Z,5.12
2022-12-15T07:10:55.055Z,6.02
2022-12-15T07:16:34.720Z,7.15
2022-12-15T07:21:57.619Z,5.87
2022-12-15T07:27:24.073Z,6.08
2022-12-15T07:32:51.888Z,6.49
2022-12-15T07:38:18.238Z,6.38
2022-12-15T07:43:38.912Z,6.60
2022-12-15T07:49:01.249Z,6.74
2022-12-15T07:54:26.961Z,6.55
2022-12-15T07:59:50.853Z,7.09
2022-12-15T08:05:17.836Z,7.40
2022-12-15T08:10:38.527Z,7.60
2022-12-15T08:16:04.805Z,6.64
2022-12-15T08:21:29.246Z,8.43
2022-12-15T08:26:56.100Z,8.44
2022-12-15T08:32:16.635Z,8.27
2022-12-15T08:37:39.791Z,7.20
2022-12-15T08:43:05.191Z,7.43
2022-12-15T08:48:26.140Z,7.33
2022-12-15T08:53:53.215Z,7.33
2022-12-15T08:59:16.484Z,7.00
2022-12-15T09:04:39.925Z,7.71
2022-12-15T09:10:00.562Z,8.42
2022-12-15T09:15:59.953Z,7.06
2022-12-15T09:20:47.396Z,6.84
2022-12-15T09:26:13.392Z,8.36
2022-12-15T09:31:40.039Z,7.64
2022-12-15T09:37:01.787Z,8.93
2022-12-15T09:42:22.935Z,11.38
2022-12-15T09:47:49.668Z,8.48
2022-12-15T09:53:45.437Z,10.04
2022-12-15T09:58:43.648Z,8.72
2022-12-15T10:04:08.046Z,9.69
2022-12-15T10:09:30.977Z,9.45
2022-12-15T10:14:56.895Z,9.73
2022-12-15T10:20:27.297Z,10.46
2022-12-15T10:25:52.942Z,10.23
2022-12-15T10:31:20.602Z,9.60
2022-12-15T10:36:47.000Z,9.34
2022-12-15T10:42:11.700Z,10.15
2022-12-15T10:47:34.183Z,10.68
2022-12-15T10:53:00.156Z,9.85
2022-12-15T10:58:30.159Z,9.45
2022-12-15T11:04:01.006Z,11.20
2022-12-15T11:09:32.556Z,11.28
2022-12-15T11:14:56.082Z,10.67
2022-12-15T11:20:21.690Z,9.75
2022-12-15T11:25:43.200Z,10.51
2022-12-15T11:31:10.638Z,10.90
2022-12-15T11:36:38.320Z,10.95
2022-12-15T11:42:24.263Z,9.99
2022-12-15T11:47:53.760Z,10.70
2022-12-15T11:53:21.414Z,10.52
2022-12-15T11:58:54.355Z,10.33
2022-12-15T12:04:32.512Z,11.51
2022-12-15T12:09:53.351Z,10.98
2022-12-15T12:15:19.260Z,9.86
2022-12-15T12:20:46.375Z,10.01
2022-12-15T12:26:11.531Z,10.31
2022-12-15T12:31:36.645Z,10.95
2022-12-15T12:37:01.999Z,9.48
2022-12-15T12:42:25.188Z,10.36
2022-12-15T12:47:51.885Z,9.90
2022-12-15T12:53:18.032Z,10.12
2022-12-15T12:58:48.648Z,10.08
2022-12-15T13:04:12.215Z,9.72
2022-12-15T13:09:49.677Z,10.35
2022-12-15T13:15:23.848Z,10.06
2022-12-15T13:20:53.228Z,8.85
2022-12-15T13:26:20.372Z,8.93
2022-12-15T13:31:49.032Z,9.62
2022-12-15T13:37:09.827Z,9.70
2022-12-15T13:43:01.915Z,9.91
2022-12-15T13:48:36.793Z,9.75
2022-12-15T13:53:59.538Z,9.57
2022-12-15T13:59:25.562Z,9.45
2022-12-15T14:04:58.307Z,9.30
2022-12-15T14:10:29.517Z,10.02
2022-12-15T14:15:53.943Z,9.86
2022-12-15T14:21:18.243Z,8.16
2022-12-15T14:26:44.587Z,8.70
2022-12-15T14:32:07.580Z,9.01
2022-12-15T14:37:31.661Z,8.46
2022-12-15T14:42:57.993Z,8.09
2022-12-15T14:48:40.669Z,7.77
2022-12-15T14:53:46.390Z,7.54
2022-12-15T14:59:10.989Z,8.36
2022-12-15T15:04:40.402Z,8.16
2022-12-15T15:10:10.939Z,9.85
2022-12-15T15:15:40.523Z,8.14
2022-12-15T15:21:06.854Z,8.32
2022-12-15T15:26:29.211Z,7.94
2022-12-15T15:31:54.225Z,7.84
2022-12-15T15:37:26.055Z,7.75
2022-12-15T15:42:48.389Z,7.74
2022-12-15T15:48:11.736Z,7.19
2022-12-15T15:53:34.031Z,7.42
2022-12-15T15:58:57.235Z,8.26
2022-12-15T16:04:26.735Z,8.57
2022-12-15T16:09:47.530Z,7.72
2022-12-15T16:15:11.137Z,6.85
2022-12-15T16:20:38.967Z,8.82
2022-12-15T16:26:01.512Z,7.42
2022-12-15T16:31:28.993Z,8.58
2022-12-15T16:36:55.653Z,7.85
2022-12-15T16:42:19.956Z,8.41
2022-12-15T16:47:45.590Z,8.93
2022-12-15T16:53:11.323Z,9.60
2022-12-15T16:58:38.894Z,9.95
2022-12-15T17:04:02.174Z,9.67
2022-12-15T17:09:29.407Z,8.37
2022-12-15T17:14:55.311Z,8.27
2022-12-15T17:20:30.012Z,8.59
2022-12-15T17:26:20.023Z,9.02
2022-12-15T17:31:15.592Z,8.94
2022-12-15T17:36:38.720Z,8.79
2022-12-15T17:42:03.447Z,7.95
2022-12-15T17:47:31.060Z,8.94
2022-12-15T17:52:58.798Z,9.97
2022-12-15T17:58:22.930Z,9.32
2022-12-15T18:03:50.429Z,9.02
2022-12-15T18:09:15.019Z,9.97
2022-12-15T18:14:38.853Z,9.94
2022-12-15T18:20:02.257Z,10.85
2022-12-15T18:25:25.720Z,9.83
2022-12-15T18:30:50.530Z,9.79
2022-12-15T18:36:17.262Z,8.73
2022-12-15T18:41:41.104Z,8.04
2022-12-15T18:47:06.377Z,7.80
2022-12-15T18:52:34.646Z,8.44
2022-12-15T18:57:58.790Z,9.07
2022-12-15T19:03:25.241Z,8.64
2022-12-15T19:08:48.828Z,8.45
2022-12-15T19:14:15.332Z,8.38
2022-12-15T19:19:41.041Z,8.90
2022-12-15T19:25:07.347Z,7.85
2022-12-15T19:30:29.790Z,8.38
2022-12-15T19:35:55.614Z,8.24
2022-12-15T19:41:17.239Z,8.02
2022-12-15T19:46:42.543Z,8.13
2022-12-15T19:52:09.559Z,7.99
2022-12-15T19:57:36.578Z,7.14
2022-12-15T20:03:00.678Z,9.33
2022-12-15T20:08:21.200Z,7.54
2022-12-15T20:13:47.883Z,7.88
2022-12-15T20:19:11.091Z,9.16
2022-12-15T20:24:38.271Z,7.91
2022-12-15T20:30:03.941Z,7.91
2022-12-15T20:35:37.102Z,7.56
2022-12-15T20:41:02.066Z,7.69
2022-12-15T20:46:28.489Z,6.83
2022-12-15T20:51:49.855Z,6.85
2022-12-15T20:57:10.728Z,6.89
2022-12-15T21:02:35.447Z,6.14
2022-12-15T21:07:59.148Z,7.08
2022-12-15T21:13:25.739Z,6.49
2022-12-15T21:19:20.262Z,6.47
2022-12-15T21:24:19.832Z,7.57
2022-12-15T21:29:48.750Z,6.70
2022-12-15T21:35:06.147Z,6.79
2022-12-15T21:40:29.136Z,7.19
2022-12-15T21:45:54.068Z,6.76
2022-12-15T21:51:18.578Z,6.16
2022-12-15T21:56:44.681Z,6.24
2022-12-15T22:02:05.609Z,6.19
2022-12-15T22:07:37.175Z,5.56
2022-12-15T22:12:59.524Z,5.72
2022-12-15T22:18:17.996Z,6.07
2022-12-15T22:23:40.783Z,6.54
2022-12-15T22:29:01.767Z,6.56
2022-12-15T22:34:27.446Z,6.39
2022-12-15T22:39:48.098Z,6.17
2022-12-15T22:45:08.850Z,5.73
2022-12-15T22:50:31.593Z,6.23
2022-12-15T22:55:59.189Z,6.37
2022-12-15T23:01:25.958Z,5.84
2022-12-15T23:06:50.853Z,6.27
2022-12-15T23:12:16.008Z,5.57
2022-12-15T23:17:42.550Z,5.18
2022-12-15T23:23:03.531Z,5.32
2022-12-15T23:28:30.438Z,5.46
2022-12-15T23:33:55.456Z,5.07
2022-12-15T23:39:21.979Z,5.75
2022-12-15T23:44:42.763Z,5.51
2022-12-15T23:50:09.865Z,5.31
2022-12-15T23:55:35.881Z,4.89
